Time;durP1;ratioP1;P1;durP2;ratioP2;P2;SDS_P1;SDS_P2;PMS_P1;PMS_P2;Temp;Humidity;BMP_temperature;BMP_pressure;BME280_temperature;BME280_humidity;BME280_pressure;Samples;Min_cycle;Max_cycle;Signal;HPM_P1;HPM_P2
2023/04/10 00:02:18;;;;;;;;;;;8.20;99.90;;;;;;5112505;28;20055;-68
2023/04/10 00:04:43;;;;;;;65.50;30.63;;;8.20;99.90;;;;;;5102448;28;19920;-69
2023/04/10 00:07:10;;;;;;;73.45;33.08;;;8.10;99.90;;;;;;5073584;28;20055;-67
2023/04/10 00:09:35;;;;;;;70.88;31.73;;;8.20;99.90;;;;;;5099048;28;20092;-67
2023/04/10 00:12:01;;;;;;;67.63;30.45;;;8.20;99.90;;;;;;5092492;28;20126;-67
2023/04/10 00:14:27;;;;;;;70.63;30.67;;;8.10;99.90;;;;;;5091077;28;20051;-67
2023/04/10 00:16:52;;;;;;;70.78;30.75;;;8.10;99.90;;;;;;5112234;28;20051;-71
2023/04/10 00:19:18;;;;;;;65.13;31.25;;;8.10;99.90;;;;;;5094535;28;20477;-67
2023/04/10 00:21:44;;;;;;;66.97;30.50;;;8.10;99.90;;;;;;5112238;28;20044;-68
2023/04/10 00:24:09;;;;;;;67.68;29.95;;;8.10;99.90;;;;;;5112803;28;20040;-67
2023/04/10 00:26:35;;;;;;;62.33;29.85;;;8.00;99.90;;;;;;5113487;28;20051;-67
2023/04/10 00:29:02;;;;;;;59.78;28.65;;;8.00;99.90;;;;;;5094412;28;20404;-67
2023/04/10 00:31:28;;;;;;;63.80;30.98;;;8.00;99.90;;;;;;5112781;28;20040;-69
2023/04/10 00:33:54;;;;;;;;;;;8.00;99.90;;;;;;5110255;28;20047;-72
2023/04/10 00:36:19;;;;;;;66.60;29.35;;;7.90;99.90;;;;;;5098958;28;20018;-67
2023/04/10 00:38:46;;;;;;;64.00;30.80;;;7.90;99.90;;;;;;5092774;28;20044;-68
2023/04/10 00:41:12;;;;;;;67.85;31.60;;;7.90;99.90;;;;;;5101432;28;20130;-68
2023/04/10 00:43:37;;;;;;;69.40;32.08;;;7.90;99.90;;;;;;5112903;28;20158;-67
2023/04/10 00:46:05;;;;;;;68.40;32.15;;;7.90;99.90;;;;;;5094098;28;20097;-67
2023/04/10 00:48:32;;;;;;;75.45;32.45;;;7.80;99.90;;;;;;5111853;28;20087;-67
2023/04/10 00:50:59;;;;;;;69.22;33.60;;;7.80;99.90;;;;;;5111400;28;20047;-72
2023/04/10 00:53:25;;;;;;;73.85;33.30;;;7.80;99.90;;;;;;5097812;28;20488;-67
2023/04/10 00:55:51;;;;;;;71.57;32.75;;;7.80;99.90;;;;;;5092173;28;20408;-67
2023/04/10 00:58:17;;;;;;;75.40;33.75;;;7.70;99.90;;;;;;5090864;28;20044;-67
2023/04/10 01:00:43;;;;;;;68.45;33.10;;;7.70;99.90;;;;;;5099001;28;20101;-67
2023/04/10 01:03:11;;;;;;;71.60;33.97;;;7.70;99.90;;;;;;5090309;28;20539;-67
2023/04/10 01:05:55;;;;;;;67.72;33.22;;;7.70;99.90;;;;;;5111893;28;20043;-65
2023/04/10 01:08:26;;;;;;;73.78;34.90;;;7.60;99.90;;;;;;5109397;28;20051;-67
2023/04/10 01:11:04;;;;;;;77.72;33.97;;;7.60;99.90;;;;;;5100228;28;20089;-65
2023/04/10 01:14:01;;;;;;;74.00;33.15;;;7.60;99.90;;;;;;5109266;28;20052;-65
2023/04/10 01:16:32;;;;;;;79.72;34.47;;;7.60;99.90;;;;;;5091645;28;20055;-66
2023/04/10 01:19:24;;;;;;;72.47;32.03;;;7.50;99.90;;;;;;5091202;28;20048;-70
2023/04/10 01:21:51;;;;;;;78.65;33.25;;;7.50;99.90;;;;;;5090805;28;20039;-67
2023/04/10 01:24:40;;;;;;;73.05;34.63;;;7.50;99.90;;;;;;5073546;28;20221;-65
2023/04/10 01:27:42;;;;;;;72.10;33.40;;;7.50;99.90;;;;;;5090273;28;20469;-66
2023/04/10 01:30:13;;;;;;;75.30;34.35;;;7.50;99.90;;;;;;5091261;28;20105;-65
2023/04/10 01:32:40;;;;;;;75.20;34.05;;;7.50;99.90;;;;;;5100542;28;20052;-65
2023/04/10 01:35:07;;;;;;;72.55;32.33;;;7.50;99.90;;;;;;5091636;28;20560;-65
2023/04/10 01:37:42;;;;;;;72.03;33.05;;;7.40;99.90;;;;;;5105745;28;20052;-65
2023/04/10 01:40:13;;;;;;;76.22;34.47;;;7.50;99.90;;;;;;5090890;28;20044;-65
2023/04/10 01:42:44;;;;;;;73.55;33.15;;;7.40;99.90;;;;;;5091582;28;20044;-65
2023/04/10 01:45:17;;;;;;;68.65;33.90;;;7.40;99.90;;;;;;5092166;28;20046;-65
2023/04/10 01:47:42;;;;;;;74.70;34.67;;;7.40;99.90;;;;;;5110533;28;20047;-65
2023/04/10 01:50:10;;;;;;;76.13;34.30;;;7.40;99.90;;;;;;5093001;28;20120;-65
2023/04/10 01:52:38;;;;;;;81.30;35.08;;;7.40;99.90;;;;;;5110542;28;20047;-65
2023/04/10 01:55:06;;;;;;;72.15;34.15;;;7.40;99.90;;;;;;5090916;28;20050;-66
2023/04/10 01:57:34;;;;;;;81.88;36.70;;;7.40;99.90;;;;;;5110179;28;20087;-65
2023/04/10 02:00:01;;;;;;;75.10;34.55;;;7.40;99.90;;;;;;5111302;28;20047;-65
2023/04/10 02:02:31;;;;;;;80.38;34.75;;;7.40;99.90;;;;;;5093628;28;20043;-65
2023/04/10 02:04:56;;;;;;;74.97;34.90;;;7.40;99.90;;;;;;5093557;28;20058;-66
2023/04/10 02:07:28;;;;;;;81.35;34.03;;;7.40;99.90;;;;;;5110090;28;20301;-65
2023/04/10 02:10:14;;;;;;;75.90;32.60;;;7.40;99.90;;;;;;5104014;28;20063;-65
2023/04/10 02:12:52;;;;;;;72.63;32.03;;;7.40;99.90;;;;;;5073182;28;20080;-65
2023/04/10 02:15:25;;;;;;;73.60;31.83;;;7.40;99.90;;;;;;5090028;28;20051;-65
2023/04/10 02:17:53;;;;;;;73.50;33.35;;;7.40;99.90;;;;;;5092485;28;20421;-65
2023/04/10 02:20:19;;;;;;;76.68;32.67;;;7.30;99.90;;;;;;5110837;28;20089;-65
2023/04/10 02:22:46;;;;;;;70.22;32.58;;;7.40;99.90;;;;;;5097902;28;20047;-65
2023/04/10 02:25:11;;;;;;;69.07;33.45;;;7.40;99.90;;;;;;5090534;28;20051;-65
2023/04/10 02:27:38;;;;;;;76.53;33.50;;;7.40;99.90;;;;;;5090822;28;20082;-65
2023/04/10 02:30:04;;;;;;;74.10;32.05;;;7.30;99.90;;;;;;5091010;28;20048;-67
2023/04/10 02:32:34;;;;;;;71.95;34.30;;;7.30;99.90;;;;;;5089546;28;20048;-65
2023/04/10 02:35:03;;;;;;;72.13;33.17;;;7.30;99.90;;;;;;5099523;28;20585;-65
2023/04/10 02:37:29;;;;;;;71.43;32.25;;;7.20;99.90;;;;;;5109481;28;20130;-67
2023/04/10 02:39:55;;;;;;;70.45;32.55;;;7.20;99.90;;;;;;5096283;28;20121;-68
2023/04/10 02:42:20;;;;;;;79.70;34.20;;;7.20;99.90;;;;;;5090132;28;20075;-67
2023/04/10 02:44:47;;;;;;;71.80;33.25;;;7.10;99.90;;;;;;5072960;28;20047;-67
2023/04/10 02:47:13;;;;;;;65.57;31.10;;;7.10;99.90;;;;;;5098097;28;20040;-68
2023/04/10 02:49:39;;;;;;;76.20;31.90;;;7.10;99.90;;;;;;5090377;28;20530;-67
2023/04/10 02:52:04;;;;;;;75.45;33.95;;;7.10;99.90;;;;;;5089610;28;20048;-67
2023/04/10 02:54:30;;;;;;;68.40;31.40;;;7.10;99.90;;;;;;5109953;28;20043;-67
2023/04/10 02:56:56;;;;;;;75.05;31.70;;;7.10;99.90;;;;;;5111170;28;20052;-67
2023/04/10 02:59:22;;;;;;;69.75;31.95;;;7.00;99.90;;;;;;5105808;28;20083;-67
2023/04/10 03:01:50;;;;;;;73.70;32.67;;;7.00;99.90;;;;;;5110155;28;20046;-67
2023/04/10 03:04:18;;;;;;;71.07;33.25;;;7.00;99.90;;;;;;5090330;28;20056;-67
2023/04/10 03:06:43;;;;;;;74.13;33.92;;;7.00;99.90;;;;;;5089493;28;20048;-67
2023/04/10 03:09:09;;;;;;;71.78;31.88;;;6.90;99.90;;;;;;5090372;28;20048;-72
2023/04/10 03:11:35;;;;;;;73.65;34.30;;;6.90;99.90;;;;;;5095790;28;20105;-67
2023/04/10 03:14:00;;;;;;;75.95;33.40;;;6.90;99.90;;;;;;5089625;28;20040;-68
2023/04/10 03:16:26;;;;;;;69.90;33.25;;;6.80;99.90;;;;;;5098705;28;20086;-67
2023/04/10 03:18:52;;;;;;;78.07;33.55;;;6.80;99.90;;;;;;5089175;28;20111;-67
2023/04/10 03:21:18;;;;;;;;;;;6.80;99.90;;;;;;5088902;28;20056;-67
2023/04/10 03:23:44;;;;;;;67.72;31.60;;;6.80;99.90;;;;;;5108297;28;19972;-67
2023/04/10 03:26:10;;;;;;;75.05;33.17;;;6.70;99.90;;;;;;5110627;28;20079;-71
2023/04/10 03:28:35;;;;;;;74.18;33.10;;;6.70;99.90;;;;;;5105731;28;20119;-68
2023/04/10 03:31:02;;;;;;;72.93;33.53;;;6.70;99.90;;;;;;5111493;28;20480;-68
2023/04/10 03:33:29;;;;;;;73.57;33.55;;;6.70;99.90;;;;;;5113018;28;20052;-67
2023/04/10 03:35:56;;;;;;;86.28;35.25;;;6.70;99.90;;;;;;5113932;28;20049;-68
2023/04/10 03:38:22;;;;;;;75.65;34.13;;;6.70;99.90;;;;;;5113517;28;20093;-67
2023/04/10 03:40:47;;;;;;;78.30;34.78;;;6.70;99.90;;;;;;5114481;28;20134;-67
2023/04/10 03:43:13;;;;;;;84.10;35.47;;;6.60;99.90;;;;;;5113765;28;20134;-68
2023/04/10 03:45:39;;;;;;;77.57;35.83;;;6.60;99.90;;;;;;5112018;28;20048;-67
2023/04/10 03:48:05;;;;;;;76.63;33.97;;;6.60;99.90;;;;;;5081992;28;20052;-67
2023/04/10 03:50:30;;;;;;;79.30;34.90;;;6.60;99.90;;;;;;5075436;28;20048;-67
2023/04/10 03:52:56;;;;;;;78.40;35.38;;;6.50;99.90;;;;;;5074879;28;20044;-67
2023/04/10 03:55:22;;;;;;;79.80;36.13;;;6.60;99.90;;;;;;5093288;28;20055;-67
2023/04/10 03:57:48;;;;;;;76.82;34.13;;;6.40;99.90;;;;;;5100363;28;20485;-67
2023/04/10 04:00:15;;;;;;;83.82;37.47;;;6.50;99.90;;;;;;5095637;28;20366;-68
2023/04/10 04:02:41;;;;;;;81.97;37.80;;;6.40;99.90;;;;;;5112783;28;20177;-67
2023/04/10 04:05:07;;;;;;;;;;;6.30;99.90;;;;;;5114421;28;20506;-67
2023/04/10 04:07:33;;;;;;;71.95;34.40;;;6.30;99.90;;;;;;5089308;28;20022;-67
2023/04/10 04:09:59;;;;;;;81.00;36.88;;;6.30;99.90;;;;;;5093359;28;20480;-67
2023/04/10 04:12:25;;;;;;;;;;;6.20;99.90;;;;;;5094646;28;20103;-67
2023/04/10 04:14:50;;;;;;;77.45;35.13;;;6.20;99.90;;;;;;5075128;28;19923;-67
2023/04/10 04:17:16;;;;;;;81.00;36.28;;;6.20;99.90;;;;;;5091515;28;20127;-67
2023/04/10 04:19:42;;;;;;;78.50;36.95;;;6.10;99.90;;;;;;5106602;28;20047;-67
2023/04/10 04:22:07;;;;;;;77.85;34.05;;;6.10;99.90;;;;;;5112471;28;20040;-67
2023/04/10 04:24:33;;;;;;;77.07;35.78;;;6.20;99.90;;;;;;5104990;28;20507;-68
2023/04/10 04:27:00;;;;;;;86.30;35.55;;;6.10;99.90;;;;;;5095593;28;20490;-68
2023/04/10 04:29:25;;;;;;;88.85;35.03;;;6.20;99.90;;;;;;5094893;28;20048;-67
2023/04/10 04:31:51;;;;;;;76.68;35.45;;;6.10;99.90;;;;;;5111805;28;20097;-67
2023/04/10 04:34:17;;;;;;;72.15;35.35;;;6.10;99.90;;;;;;5111096;28;20052;-67
2023/04/10 04:36:42;;;;;;;80.55;35.70;;;6.10;99.90;;;;;;5108227;28;20097;-68
2023/04/10 04:39:08;;;;;;;76.38;33.50;;;6.10;99.90;;;;;;5110509;28;20123;-68
2023/04/10 04:41:34;;;;;;;77.57;35.45;;;6.10;99.90;;;;;;5109660;28;20040;-68
2023/04/10 04:44:01;;;;;;;85.88;36.90;;;6.00;99.90;;;;;;5092741;28;20080;-67
2023/04/10 04:46:27;;;;;;;81.00;35.92;;;6.10;99.90;;;;;;5078595;28;20044;-69
2023/04/10 04:48:53;;;;;;;76.57;36.03;;;6.10;99.90;;;;;;5074098;28;20071;-68
2023/04/10 04:51:18;;;;;;;84.05;34.65;;;6.10;99.90;;;;;;5073045;28;20087;-67
2023/04/10 04:53:44;;;;;;;85.45;37.05;;;6.10;99.90;;;;;;5092399;28;20059;-68
2023/04/10 04:56:09;;;;;;;84.43;34.55;;;6.10;99.90;;;;;;5092011;28;20047;-67
2023/04/10 04:58:35;;;;;;;79.32;34.88;;;6.10;99.90;;;;;;5091596;28;20501;-67
2023/04/10 05:01:01;;;;;;;86.80;36.45;;;6.10;99.90;;;;;;5092039;28;20130;-67
2023/04/10 05:03:30;;;;;;;83.32;34.78;;;6.10;99.90;;;;;;5104048;28;20064;-67
2023/04/10 05:05:56;;;;;;;83.53;37.30;;;6.10;99.90;;;;;;5083893;28;20060;-68
2023/04/10 05:08:22;;;;;;;79.72;35.05;;;6.10;99.90;;;;;;5056419;28;20413;-68
2023/04/10 05:10:48;;;;;;;74.07;34.78;;;6.00;99.90;;;;;;5092141;28;20054;-68
2023/04/10 05:13:16;;;;;;;79.18;35.97;;;6.10;99.90;;;;;;5092091;28;20048;-68
2023/04/10 05:15:45;;;;;;;80.43;35.50;;;6.00;99.90;;;;;;5091859;28;20060;-67
2023/04/10 05:18:12;;;;;;;81.57;36.83;;;6.10;99.90;;;;;;5090610;28;20489;-67
2023/04/10 05:20:38;;;;;;;84.13;35.85;;;6.10;99.90;;;;;;5096910;28;20537;-68
2023/04/10 05:23:04;;;;;;;79.00;36.60;;;6.10;99.90;;;;;;5111206;28;20048;-67
2023/04/10 05:25:30;;;;;;;83.57;35.70;;;6.10;99.90;;;;;;5102816;28;20085;-67
2023/04/10 05:27:55;;;;;;;79.00;35.45;;;6.00;99.90;;;;;;5091827;28;20168;-67
2023/04/10 05:30:21;;;;;;;83.30;36.63;;;6.10;99.90;;;;;;5091374;28;20048;-67
2023/04/10 05:32:47;;;;;;;75.47;34.45;;;6.10;99.90;;;;;;5072802;28;20135;-67
2023/04/10 05:35:12;;;;;;;77.20;34.00;;;6.20;99.90;;;;;;5092618;28;20089;-67
2023/04/10 05:37:38;;;;;;;73.85;34.65;;;6.10;99.90;;;;;;5092469;28;20100;-68
2023/04/10 05:40:04;;;;;;;81.97;35.85;;;6.10;99.90;;;;;;5097723;28;20044;-67
2023/04/10 05:42:30;;;;;;;81.10;34.75;;;6.10;99.90;;;;;;5098695;28;20044;-68
2023/04/10 05:44:56;;;;;;;77.25;35.03;;;6.20;99.90;;;;;;5091436;28;20043;-68
2023/04/10 05:47:21;;;;;;;80.22;35.67;;;6.20;99.90;;;;;;5109568;28;20051;-71
2023/04/10 05:49:47;;;;;;;81.00;35.92;;;6.20;99.90;;;;;;5111730;28;20044;-67
2023/04/10 05:52:13;;;;;;;81.05;35.78;;;6.20;99.90;;;;;;5102733;28;20051;-67
2023/04/10 05:54:38;;;;;;;83.93;35.20;;;6.20;99.90;;;;;;5090970;28;20131;-67
2023/04/10 05:57:04;;;;;;;77.88;32.50;;;6.30;99.90;;;;;;5099597;28;20451;-67
2023/04/10 05:59:30;;;;;;;76.03;33.88;;;6.40;99.90;;;;;;5104249;28;20126;-67
2023/04/10 06:01:56;;;;;;;71.35;32.40;;;6.40;99.90;;;;;;5105719;28;20040;-67
2023/04/10 06:04:22;;;;;;;75.93;34.20;;;6.50;99.90;;;;;;5075722;28;20531;-70
2023/04/10 06:06:48;;;;;;;64.88;31.60;;;6.40;99.90;;;;;;5106435;28;20084;-67
2023/04/10 06:09:14;;;;;;;;;;;6.60;99.90;;;;;;5107537;28;20553;-68
2023/04/10 06:11:40;;;;;;;77.35;31.05;;;6.60;99.90;;;;;;5110940;28;19923;-67
2023/04/10 06:14:05;;;;;;;70.70;32.67;;;6.70;99.90;;;;;;5093229;28;20040;-65
2023/04/10 06:16:31;;;;;;;67.28;30.83;;;6.70;99.90;;;;;;5109995;28;20052;-66
2023/04/10 06:18:57;;;;;;;70.13;30.95;;;6.80;99.90;;;;;;5109969;28;20481;-65
2023/04/10 06:21:23;;;;;;;64.97;30.42;;;6.90;99.90;;;;;;5087082;28;20048;-70
2023/04/10 06:23:49;;;;;;;68.57;29.70;;;6.90;99.90;;;;;;5098026;28;20050;-66
2023/04/10 06:26:15;;;;;;;66.50;30.10;;;7.00;99.90;;;;;;5111373;28;20082;-65
2023/04/10 06:28:41;;;;;;;66.57;30.00;;;7.10;99.90;;;;;;5110585;28;20248;-66
2023/04/10 06:31:07;;;;;;;68.97;29.70;;;7.20;99.90;;;;;;5111253;28;20047;-65
2023/04/10 06:33:35;;;;;;;67.72;29.15;;;7.30;99.90;;;;;;5089583;28;20047;-67
2023/04/10 06:36:01;;;;;;;65.28;29.30;;;7.40;99.90;;;;;;5089934;28;20054;-65
2023/04/10 06:38:27;;;;;;;71.97;29.27;;;7.50;99.90;;;;;;5091453;28;20056;-67
2023/04/10 06:40:52;;;;;;;61.70;27.08;;;7.60;99.90;;;;;;5093094;28;20054;-65
2023/04/10 06:43:18;;;;;;;62.13;27.17;;;7.70;99.90;;;;;;5072625;28;20093;-66
2023/04/10 06:45:44;;;;;;;57.65;24.77;;;7.80;99.90;;;;;;5090466;28;20785;-65
2023/04/10 06:48:11;;;;;;;62.65;27.40;;;7.90;99.90;;;;;;5096928;28;20048;-65
2023/04/10 06:50:37;;;;;;;59.13;25.55;;;8.00;99.90;;;;;;5110204;28;20044;-66
2023/04/10 06:53:03;;;;;;;60.42;26.40;;;8.10;99.90;;;;;;5109968;28;20096;-65
2023/04/10 06:55:29;;;;;;;59.03;26.27;;;8.20;99.90;;;;;;5110542;28;20088;-65
2023/04/10 06:57:55;;;;;;;54.72;23.40;;;8.30;99.90;;;;;;5110396;28;20481;-65
2023/04/10 07:00:22;;;;;;;53.75;22.58;;;8.40;99.90;;;;;;5091480;28;20122;-65
2023/04/10 07:02:48;;;;;;;50.78;24.08;;;8.50;99.90;;;;;;5105860;28;20092;-65
2023/04/10 07:05:15;;;;;;;49.72;21.50;;;8.60;99.90;;;;;;5108925;28;20040;-65
2023/04/10 07:07:41;;;;;;;50.72;21.27;;;8.60;99.90;;;;;;5112743;28;20086;-64
2023/04/10 07:10:07;;;;;;;50.15;22.15;;;8.70;99.90;;;;;;5114617;28;20400;-66
2023/04/10 07:12:33;;;;;;;44.97;20.33;;;8.80;99.90;;;;;;5114479;28;20138;-65
2023/04/10 07:14:59;;;;;;;38.75;17.75;;;8.80;99.90;;;;;;5114878;28;20134;-65
2023/04/10 07:17:25;;;;;;;47.10;20.33;;;8.90;99.90;;;;;;5113588;28;20106;-65
2023/04/10 07:19:50;;;;;;;45.83;20.25;;;9.00;99.90;;;;;;5114273;28;20035;-64
2023/04/10 07:22:16;;;;;;;47.08;19.45;;;9.10;99.90;;;;;;5109963;28;20046;-64
2023/04/10 07:24:42;;;;;;;46.95;19.98;;;9.10;99.90;;;;;;5113943;28;20130;-65
2023/04/10 07:27:07;;;;;;;42.63;20.00;;;9.20;99.90;;;;;;5085464;28;20052;-66
2023/04/10 07:29:33;;;;;;;35.85;15.38;;;9.30;99.90;;;;;;5097713;27;20050;-68
2023/04/10 07:31:59;;;;;;;33.80;15.85;;;9.30;99.90;;;;;;5095752;28;20134;-67
2023/04/10 07:34:25;;;;;;;41.05;16.98;;;9.40;99.90;;;;;;5106780;28;20047;-67
2023/04/10 07:36:51;;;;;;;37.38;14.35;;;9.50;99.90;;;;;;5097543;28;20039;-68
2023/04/10 07:39:17;;;;;;;42.80;19.50;;;9.60;99.90;;;;;;5101668;28;20055;-68
2023/04/10 07:41:43;;;;;;;34.85;16.15;;;9.70;99.90;;;;;;5092717;28;20131;-67
2023/04/10 07:44:09;;;;;;;40.13;17.63;;;9.70;99.90;;;;;;5096034;28;20052;-67
2023/04/10 07:46:35;;;;;;;39.75;17.08;;;9.80;99.90;;;;;;5103630;28;20043;-68
2023/04/10 07:49:01;;;;;;;34.55;15.55;;;10.00;99.90;;;;;;5087828;28;20047;-66
2023/04/10 07:51:27;;;;;;;37.33;15.68;;;10.00;99.90;;;;;;5098698;28;20139;-67
2023/04/10 07:53:53;;;;;;;33.72;13.63;;;10.10;99.90;;;;;;5098893;28;21519;-68
2023/04/10 07:56:20;;;;;;;36.67;15.18;;;10.20;99.90;;;;;;5107481;28;20058;-68
2023/04/10 07:58:46;;;;;;;31.98;12.93;;;10.30;99.90;;;;;;5092574;28;20048;-67
2023/04/10 08:01:12;;;;;;;37.05;15.27;;;10.50;99.90;;;;;;5093265;28;20531;-67
2023/04/10 08:03:44;;;;;;;33.40;13.55;;;10.50;99.90;;;;;;5096033;28;20133;-67
2023/04/10 08:06:11;;;;;;;31.02;13.02;;;10.70;99.90;;;;;;5094705;28;20451;-67
2023/04/10 08:08:37;;;;;;;33.53;13.82;;;10.70;99.90;;;;;;5077501;28;20139;-67
2023/04/10 08:11:23;;;;;;;33.72;14.55;;;10.80;99.90;;;;;;5092811;28;20059;-67
2023/04/10 08:13:50;;;;;;;31.38;13.45;;;11.00;99.90;;;;;;5095589;28;20405;-68
2023/04/10 08:16:19;;;;;;;32.35;14.10;;;11.10;99.90;;;;;;5092895;28;20591;-67
2023/04/10 08:18:45;;;;;;;30.67;13.88;;;11.20;99.90;;;;;;5110803;28;20047;-67
2023/04/10 08:21:11;;;;;;;;;;;11.30;99.90;;;;;;5112497;28;20059;-64
2023/04/10 08:23:37;;;;;;;29.20;12.88;;;11.40;99.90;;;;;;5112424;28;19924;-68
2023/04/10 08:26:03;;;;;;;39.13;14.07;;;11.50;99.90;;;;;;5108006;28;20055;-65
2023/04/10 08:28:31;;;;;;;31.40;13.15;;;11.60;99.90;;;;;;5098986;28;20467;-65
2023/04/10 08:30:57;;;;;;;29.73;13.48;;;11.60;99.90;;;;;;5103605;28;20495;-65
2023/04/10 08:33:22;;;;;;;32.33;11.63;;;11.80;99.90;;;;;;5112077;28;20044;-65
2023/04/10 08:35:48;;;;;;;26.60;12.40;;;11.90;99.90;;;;;;5109007;28;20127;-66
2023/04/10 08:38:14;;;;;;;29.17;13.10;;;11.90;99.90;;;;;;5109006;28;20058;-66
2023/04/10 08:40:39;;;;;;;26.10;11.57;;;12.10;99.90;;;;;;5112268;28;20054;-65
2023/04/10 08:43:05;;;;;;;28.85;13.38;;;12.20;99.90;;;;;;5112523;28;20043;-65
2023/04/10 08:45:31;;;;;;;27.85;12.07;;;12.20;99.90;;;;;;5110421;28;20047;-65
2023/04/10 08:48:01;;;;;;;27.58;12.25;;;12.20;99.90;;;;;;5102463;28;20282;-65
2023/04/10 08:50:30;;;;;;;30.10;13.35;;;12.20;99.90;;;;;;5074368;28;20050;-67
2023/04/10 08:52:58;;;;;;;32.05;13.48;;;12.30;99.90;;;;;;5093720;28;20043;-67
2023/04/10 08:55:25;;;;;;;24.42;12.02;;;12.40;99.90;;;;;;5100651;28;20510;-69
2023/04/10 08:57:52;;;;;;;29.38;12.48;;;12.40;99.90;;;;;;5110289;28;20044;-68
2023/04/10 09:00:18;;;;;;;28.75;12.70;;;12.50;99.90;;;;;;5094490;28;20055;-67
2023/04/10 09:02:44;;;;;;;29.40;12.30;;;12.50;99.90;;;;;;5110345;28;20035;-67
2023/04/10 09:05:11;;;;;;;26.95;12.73;;;12.50;99.90;;;;;;5095856;28;20551;-67
2023/04/10 09:07:37;;;;;;;26.13;11.57;;;12.60;99.90;;;;;;5082431;28;20442;-67
2023/04/10 09:10:04;;;;;;;27.52;11.68;;;12.70;99.90;;;;;;5087361;28;20123;-67
2023/04/10 09:12:46;;;;;;;21.25;10.93;;;12.70;99.90;;;;;;5081336;28;20055;-68
2023/04/10 09:15:13;;;;;;;26.48;11.88;;;12.80;99.90;;;;;;5103479;28;20047;-68
2023/04/10 09:17:55;;;;;;;26.02;11.63;;;12.90;99.90;;;;;;5088412;28;20031;-67
2023/04/10 09:20:22;;;;;;;21.48;9.90;;;13.10;99.90;;;;;;5093880;28;20077;-65
2023/04/10 09:22:48;;;;;;;25.45;11.07;;;13.20;99.90;;;;;;5108896;28;20045;-65
2023/04/10 09:25:34;;;;;;;23.05;9.90;;;13.30;99.90;;;;;;5111818;28;20126;-66
2023/04/10 09:28:05;;;;;;;23.85;10.40;;;13.40;99.90;;;;;;5111715;28;20202;-66
2023/04/10 09:30:36;;;;;;;19.45;9.68;;;13.50;99.90;;;;;;5108992;28;20048;-64
2023/04/10 09:33:02;;;;;;;17.67;7.35;;;13.60;99.90;;;;;;5102195;28;20092;-65
2023/04/10 09:35:35;;;;;;;;;;;13.80;98.20;;;;;;5112629;28;20393;-65
2023/04/10 09:38:12;;;;;;;15.85;7.35;;;13.80;96.70;;;;;;5101658;28;19928;-65
2023/04/10 09:40:37;;;;;;;15.43;7.47;;;13.90;94.20;;;;;;5091823;28;20051;-66
2023/04/10 09:43:22;;;;;;;16.42;6.78;;;13.90;95.90;;;;;;5101969;28;20035;-65
2023/04/10 09:45:53;;;;;;;14.15;6.10;;;14.00;93.70;;;;;;5108357;28;20507;-65
2023/04/10 09:48:20;;;;;;;13.25;5.57;;;14.10;93.10;;;;;;5110440;28;20040;-65
2023/04/10 09:50:46;;;;;;;15.65;7.43;;;14.10;91.60;;;;;;5109204;28;20092;-68
2023/04/10 09:53:20;;;;;;;16.38;6.45;;;14.20;92.00;;;;;;5099577;28;20036;-65
2023/04/10 09:55:49;;;;;;;15.13;7.28;;;14.30;92.50;;;;;;5079516;28;20369;-69
2023/04/10 09:58:16;;;;;;;16.27;6.25;;;14.40;91.70;;;;;;5110564;28;20047;-65
2023/04/10 10:00:42;;;;;;;14.32;7.45;;;14.40;91.00;;;;;;5104334;28;20069;-66
2023/04/10 10:03:10;;;;;;;13.05;6.13;;;14.30;91.30;;;;;;5087500;28;20055;-66
2023/04/10 10:05:39;;;;;;;10.90;5.90;;;14.40;91.20;;;;;;5111488;28;20091;-68
2023/04/10 10:08:10;;;;;;;12.20;5.40;;;14.40;90.50;;;;;;5092417;28;20054;-66
2023/04/10 10:10:57;;;;;;;10.02;5.35;;;14.40;88.60;;;;;;5124352;27;20491;-69
2023/04/10 10:13:30;;;;;;;10.52;4.25;;;14.40;82.30;;;;;;5097049;28;20477;-66
2023/04/10 10:16:10;;;;;;;13.80;5.40;;;14.40;83.00;;;;;;5093518;28;20055;-67
2023/04/10 10:18:53;;;;;;;9.32;4.55;;;14.40;85.00;;;;;;5110133;28;20122;-66
2023/04/10 10:21:20;;;;;;;9.60;4.95;;;14.50;84.20;;;;;;5094452;28;20048;-67
2023/04/10 10:23:52;;;;;;;10.82;5.25;;;14.50;84.20;;;;;;5098216;28;20062;-71
2023/04/10 10:26:18;;;;;;;9.95;4.60;;;14.60;85.60;;;;;;5111084;28;20052;-67
2023/04/10 10:28:47;;;;;;;9.07;4.72;;;14.70;84.10;;;;;;5110813;28;20385;-67
2023/04/10 10:31:13;;;;;;;9.57;4.40;;;14.80;81.80;;;;;;5110625;28;20054;-67
2023/04/10 10:33:40;;;;;;;8.60;3.97;;;14.90;82.90;;;;;;5101196;28;20040;-68
2023/04/10 10:36:07;;;;;;;7.07;3.25;;;14.90;80.70;;;;;;5099548;28;20099;-68
2023/04/10 10:38:33;;;;;;;8.52;3.97;;;15.10;80.00;;;;;;5100381;28;20051;-66
2023/04/10 10:41:08;;;;;;;;;;;15.10;80.40;;;;;;5110807;28;20511;-66
2023/04/10 10:44:11;;;;;;;9.27;4.15;;;15.20;81.60;;;;;;5098757;28;19992;-67
2023/04/10 10:46:39;;;;;;;9.82;4.65;;;15.30;80.60;;;;;;5089726;28;20127;-66
2023/04/10 10:49:04;;;;;;;10.73;4.32;;;15.40;78.10;;;;;;5107429;28;20036;-66
2023/04/10 10:51:47;;;;;;;8.57;4.63;;;15.50;79.00;;;;;;5091629;28;20044;-66
2023/04/10 10:54:32;;;;;;;8.82;4.03;;;15.50;77.50;;;;;;5092397;28;20048;-67
2023/04/10 10:56:59;;;;;;;5.68;2.50;;;15.50;78.40;;;;;;5105427;28;20058;-66
2023/04/10 10:59:47;;;;;;;9.50;3.45;;;15.60;76.00;;;;;;5081880;28;20097;-67
2023/04/10 11:02:15;;;;;;;6.97;3.40;;;15.60;74.40;;;;;;5102137;28;20505;-68
2023/04/10 11:04:45;;;;;;;5.90;3.00;;;15.60;74.90;;;;;;5095164;28;20097;-66
2023/04/10 11:07:12;;;;;;;7.50;3.67;;;15.50;73.80;;;;;;5095746;28;20043;-66
2023/04/10 11:09:55;;;;;;;6.45;3.00;;;15.40;74.20;;;;;;5109984;28;20500;-67
2023/04/10 11:12:22;;;;;;;4.75;2.35;;;15.40;74.40;;;;;;5110371;28;20512;-66
2023/04/10 11:14:59;;;;;;;6.93;3.40;;;15.40;73.40;;;;;;5110283;28;20045;-65
2023/04/10 11:17:52;;;;;;;6.97;3.42;;;15.50;74.80;;;;;;5106752;28;20043;-64
2023/04/10 11:20:26;;;;;;;7.57;3.15;;;15.50;74.00;;;;;;5092895;28;20044;-64
2023/04/10 11:23:10;;;;;;;8.45;3.60;;;15.60;75.10;;;;;;5088155;28;20071;-67
2023/04/10 11:25:50;;;;;;;5.82;2.92;;;15.60;75.20;;;;;;5095787;28;20043;-64
2023/04/10 11:28:30;;;;;;;7.30;3.30;;;15.70;75.60;;;;;;5109764;28;20090;-66
2023/04/10 11:31:12;;;;;;;6.93;3.53;;;15.90;77.70;;;;;;5109688;28;20146;-65
2023/04/10 11:33:39;;;;;;;5.10;2.40;;;16.10;75.10;;;;;;5109514;28;20044;-64
2023/04/10 11:36:06;;;;;;;6.43;2.75;;;16.20;76.10;;;;;;5109181;28;20093;-65
2023/04/10 11:38:31;;;;;;;5.13;2.25;;;16.20;73.50;;;;;;5108154;28;20071;-65
2023/04/10 11:41:03;;;;;;;4.80;2.40;;;16.10;69.50;;;;;;5097662;28;20082;-64
2023/04/10 11:43:29;;;;;;;4.05;1.92;;;16.00;71.70;;;;;;5102120;28;20047;-64
2023/04/10 11:46:03;;;;;;;4.78;2.03;;;16.00;72.20;;;;;;5110106;28;20043;-69
2023/04/10 11:48:29;;;;;;;3.30;2.05;;;15.90;68.30;;;;;;5111001;28;20088;-65
2023/04/10 11:50:54;;;;;;;;;;;15.90;69.50;;;;;;5113992;28;20077;-69
2023/04/10 11:53:20;;;;;;;6.05;2.50;;;15.90;67.70;;;;;;5112308;28;19931;-64
2023/04/10 11:55:46;;;;;;;;;;;15.80;68.90;;;;;;5114423;28;20485;-64
2023/04/10 11:58:22;;;;;;;6.18;2.63;;;15.80;69.30;;;;;;5113453;28;19923;-64
2023/04/10 12:00:56;;;;;;;5.07;2.50;;;15.80;69.70;;;;;;5111699;28;20476;-65
2023/04/10 12:03:39;;;;;;;6.68;2.60;;;15.90;69.20;;;;;;5110622;28;20090;-65
2023/04/10 12:06:10;;;;;;;4.88;2.45;;;16.00;69.10;;;;;;5112472;28;20063;-64
2023/04/10 12:08:39;;;;;;;4.55;2.38;;;16.10;68.40;;;;;;5113317;28;20104;-64
2023/04/10 12:11:06;;;;;;;6.80;2.97;;;16.20;70.20;;;;;;5111186;28;20078;-65
2023/04/10 12:13:32;;;;;;;5.82;2.78;;;16.30;69.10;;;;;;5112082;28;20050;-64
2023/04/10 12:16:03;;;;;;;10.25;2.88;;;16.50;69.20;;;;;;5112887;28;20048;-68
2023/04/10 12:18:30;;;;;;;5.40;2.33;;;16.70;69.60;;;;;;5108311;28;20446;-64
2023/04/10 12:20:57;;;;;;;4.88;2.58;;;16.70;67.10;;;;;;5112278;28;20528;-66
2023/04/10 12:23:24;;;;;;;5.05;2.55;;;16.70;68.70;;;;;;5112938;28;20044;-65
2023/04/10 12:25:50;;;;;;;6.65;2.63;;;16.80;69.90;;;;;;5113570;28;20404;-64
2023/04/10 12:28:18;;;;;;;5.07;2.50;;;17.10;70.90;;;;;;5094770;28;20056;-64
2023/04/10 12:30:52;;;;;;;4.00;2.20;;;17.40;70.30;;;;;;5113429;28;20408;-65
2023/04/10 12:33:24;;;;;;;4.28;2.50;;;17.60;68.20;;;;;;5093218;28;20157;-64
2023/04/10 12:35:51;;;;;;;4.55;2.35;;;17.90;66.90;;;;;;5113024;28;20086;-64
2023/04/10 12:38:42;;;;;;;4.30;2.17;;;18.20;65.10;;;;;;5111852;28;20405;-64
2023/04/10 12:41:10;;;;;;;5.10;2.35;;;18.50;65.00;;;;;;5108363;28;20051;-64
2023/04/10 12:43:40;;;;;;;4.75;2.40;;;18.80;64.60;;;;;;5094824;28;20404;-64
2023/04/10 12:46:08;;;;;;;4.50;2.03;;;19.30;62.90;;;;;;5078990;28;20036;-64
2023/04/10 12:48:34;;;;;;;5.85;2.80;;;19.70;61.80;;;;;;5109264;28;20123;-64